Le Lyrial — FIRS — position and weather

sailwx.info

Track history (hours):
 
Tides and Currents Weather Stations Pressure Air Temp Water Temp Dewpoint Dewpoint Depression Visibility Wind Speed Wind Dir Waves Ship Positions

Le Lyrial

Last reported at 2017-Oct-18 07:59 UTC. Time now 2017-Oct-18 15:10 UTC.
Position N 38°29' W 008°47'.

Length 142 m; draft 4.9 m.

Type: Passenger vessel. MMSI: 578000800.

Date/timePositionNaut miles runAvg speedWind from/ knotsBaromVisibWave heightAir tempDewpointWater temp
2017-Oct-18 07:59N 38°29' W 008°47'0 0.0
2017-Oct-17 20:29N 38°29' W 008°47'0 0.0
2017-Oct-17 19:59N 38°29' W 008°47'0 0.2
2017-Oct-17 19:29N 38°29' W 008°47'0 0.1
2017-Oct-17 18:59N 38°28' W 008°47'0 0.0
2017-Oct-17 18:26N 38°28' W 008°47'0 0.1
2017-Oct-17 17:56N 38°28' W 008°47'0 0.1
2017-Oct-17 17:29N 38°28' W 008°47'0 0.0
2017-Oct-17 14:29N 38°28' W 008°47'0 0.0
2017-Oct-17 14:01N 38°28' W 008°47'0 0.1
2017-Oct-17 13:30N 38°28' W 008°47'0 0.2
2017-Oct-17 13:00N 38°28' W 008°47'2 4.3
2017-Oct-17 12:30N 38°28' W 008°50'3 6.0
2017-Oct-17 12:00N 38°30' W 008°53'3 6.8
2017-Oct-17 11:30N 38°28' W 008°57'510.3
2017-Oct-17 11:00N 38°24' W 009°01'1 2.0
2017-Oct-17 10:30N 38°25' W 009°03'714.0
2017-Oct-17 10:00N 38°23' W 009°11'613.1
2017-Oct-17 09:30N 38°27' W 009°18'815.3
2017-Oct-17 09:00N 38°34' W 009°21'713.1
2017-Oct-17 08:30N 38°40' W 009°19'713.0
2017-Oct-17 08:00N 38°41' W 009°10'3 5.0
2017-Oct-17 07:28N 38°43' W 009°07'0 0.0
2017-Oct-17 06:58N 38°43' W 009°07'0 0.0
2017-Oct-17 05:28N 38°43' W 009°07'0 0.0
2017-Oct-17 04:58N 38°43' W 009°07'0 1.1
2017-Oct-17 04:30N 38°42' W 009°08'4 7.8
2017-Oct-17 04:00N 38°41' W 009°13'4 7.4
2017-Oct-17 03:29N 38°41' W 009°17'4 8.7
2017-Oct-17 03:00N 38°38' W 009°21'4 9.0
2017-Oct-17 02:30N 38°34' W 009°23'611.6
2017-Oct-17 02:00N 38°28' W 009°21'611.8
2017-Oct-17 01:31N 38°22' W 009°21'611.4
2017-Oct-17 01:00N 38°16' W 009°23'611.0
2017-Oct-17 00:30N 38°11' W 009°22'611.7
2017-Oct-17 00:00N 38°05' W 009°22'612.7
2017-Oct-16 23:30N 37°59' W 009°22'613.0
2017-Oct-16 23:00N 37°52' W 009°22'713.4
2017-Oct-16 22:30N 37°46' W 009°22'58 8.6
2017-Oct-16 15:45N 36°57' W 008°42'414.5
2017-Oct-16 15:30N 36°60' W 008°39'714.1
2017-Oct-16 15:00N 37°05' W 008°33'3 5.5
2017-Oct-16 14:29N 37°08' W 008°32'0 0.0
2017-Oct-16 13:29N 37°08' W 008°32'0 0.0
2017-Oct-16 12:59N 37°08' W 008°32'0 0.0
2017-Oct-16 12:29N 37°08' W 008°32'0 0.0
2017-Oct-16 11:59N 37°08' W 008°32'0 0.0
2017-Oct-16 11:23N 37°08' W 008°32'0 0.0
2017-Oct-16 10:59N 37°08' W 008°32'0 0.0
2017-Oct-16 10:29N 37°08' W 008°32'0 0.0
2017-Oct-16 09:59N 37°08' W 008°32'0 0.0
2017-Oct-16 09:29N 37°08' W 008°32'0 0.0
2017-Oct-16 08:59N 37°08' W 008°32'0 0.0
2017-Oct-16 08:26N 37°08' W 008°32'0 0.0
2017-Oct-16 07:59N 37°08' W 008°32'0 0.0
2017-Oct-16 07:31N 37°08' W 008°32'1 2.4
2017-Oct-16 07:00N 37°06' W 008°32'2 3.2
2017-Oct-16 06:30N 37°05' W 008°33'3 5.4
2017-Oct-16 06:01N 37°02' W 008°33'510.0
2017-Oct-16 05:31N 37°01' W 008°27'611.4
2017-Oct-16 05:00N 36°60' W 008°20'611.2
2017-Oct-16 04:30N 36°58' W 008°13'611.4
2017-Oct-16 04:00N 36°57' W 008°06'134 3.7
2017-Oct-14 15:33N 35°58' W 005°37'013.8
2017-Oct-14 15:30N 35°58' W 005°36'613.0
2017-Oct-14 15:00N 35°60' W 005°28'611.9
2017-Oct-14 14:30N 36°04' W 005°24'2 0.2
2017-Oct-14 04:56N 36°06' W 005°22'3 7.8
2017-Oct-14 04:30N 36°06' W 005°18'5 8.9
2017-Oct-14 03:58N 36°08' W 005°12'224 7.4
2017-Oct-12 21:30N 37°24' W 000°49'914.9
2017-Oct-12 20:54N 37°30' W 000°40'614.7
2017-Oct-12 20:30N 37°34' W 000°35'715.0
2017-Oct-12 20:00N 37°39' W 000°29'1315.2
2017-Oct-12 19:08N 37°50' W 000°20'215.2
2017-Oct-12 18:59N 37°52' W 000°18'715.0
2017-Oct-12 18:30N 37°59' W 000°13'715.0
2017-Oct-12 18:00N 38°05' W 000°08'815.1
2017-Oct-12 17:30N 38°11' W 000°03'815.1
2017-Oct-12 17:00N 38°18' E 000°02'815.2
2017-Oct-12 16:30N 38°24' E 000°08'2214.6
2017-Oct-12 14:59N 38°43' E 000°23'105 4.9
2017-Oct-11 17:21N 39°25' E 002°27'511.9
2017-Oct-11 16:54N 39°26' E 002°34'243 5.0
2017-Oct-09 15:51N 43°24' E 003°45'2 2.1
2017-Oct-09 14:55N 43°24' E 003°42'0 0.0
2017-Oct-09 14:25N 43°24' E 003°42'0 0.0
2017-Oct-09 07:43N 43°24' E 003°42'4 1.1
2017-Oct-09 04:27N 43°23' E 003°47'3 3.3
2017-Oct-09 03:40N 43°22' E 003°50'1 3.4
2017-Oct-09 03:30N 43°21' E 003°51'10 5.5
2017-Oct-09 01:43N 43°21' E 004°04'3 8.0
2017-Oct-09 01:24N 43°20' E 004°07'3 7.9
2017-Oct-09 01:00N 43°19' E 004°11'4 7.8
2017-Oct-09 00:30N 43°18' E 004°16'4 7.7
2017-Oct-09 00:00N 43°17' E 004°21'4 8.1
2017-Oct-08 23:30N 43°17' E 004°27'5 7.8
2017-Oct-08 22:56N 43°16' E 004°33'3 7.8
2017-Oct-08 22:30N 43°16' E 004°38'6 7.7
2017-Oct-08 21:44N 43°16' E 004°46'3 8.0
2017-Oct-08 21:24N 43°16' E 004°50'911.1
2017-Oct-08 20:33N 43°11' E 005°00'111.2
2017-Oct-08 20:30N 43°11' E 005°01'5 9.2
2017-Oct-08 20:00N 43°11' E 005°07'4 8.3
2017-Oct-08 19:29N 43°14' E 005°12'7 8.2
2017-Oct-08 18:38N 43°18' E 005°19'  
Track history (hours):
 
Tides and Currents Weather Stations Pressure Air Temp Water Temp Dewpoint Dewpoint Depression Visibility Wind Speed Wind Dir Waves Ship Positions

Le Lyrial

Last reported at 2017-Oct-18 07:59 UTC. Time now 2017-Oct-18 15:10 UTC.
Position N 38°29' W 008°47'.

Length 142 m; draft 4.9 m.

Type: Passenger vessel. MMSI: 578000800.

Date/timePositionNaut miles runAvg speedWind from/ knotsBaromVisibWave heightAir tempDewpointWater temp
2017-Oct-18 07:59N 38°29' W 008°47'0 0.0
2017-Oct-17 20:29N 38°29' W 008°47'0 0.0
2017-Oct-17 19:59N 38°29' W 008°47'0 0.2
2017-Oct-17 19:29N 38°29' W 008°47'0 0.1
2017-Oct-17 18:59N 38°28' W 008°47'0 0.0
2017-Oct-17 18:26N 38°28' W 008°47'0 0.1
2017-Oct-17 17:56N 38°28' W 008°47'0 0.1
2017-Oct-17 17:29N 38°28' W 008°47'0 0.0
2017-Oct-17 14:29N 38°28' W 008°47'0 0.0
2017-Oct-17 14:01N 38°28' W 008°47'0 0.1
2017-Oct-17 13:30N 38°28' W 008°47'0 0.2
2017-Oct-17 13:00N 38°28' W 008°47'2 4.3
2017-Oct-17 12:30N 38°28' W 008°50'3 6.0
2017-Oct-17 12:00N 38°30' W 008°53'3 6.8
2017-Oct-17 11:30N 38°28' W 008°57'510.3
2017-Oct-17 11:00N 38°24' W 009°01'1 2.0
2017-Oct-17 10:30N 38°25' W 009°03'714.0
2017-Oct-17 10:00N 38°23' W 009°11'613.1
2017-Oct-17 09:30N 38°27' W 009°18'815.3
2017-Oct-17 09:00N 38°34' W 009°21'713.1
2017-Oct-17 08:30N 38°40' W 009°19'713.0
2017-Oct-17 08:00N 38°41' W 009°10'3 5.0
2017-Oct-17 07:28N 38°43' W 009°07'0 0.0
2017-Oct-17 06:58N 38°43' W 009°07'0 0.0
2017-Oct-17 05:28N 38°43' W 009°07'0 0.0
2017-Oct-17 04:58N 38°43' W 009°07'0 1.1
2017-Oct-17 04:30N 38°42' W 009°08'4 7.8
2017-Oct-17 04:00N 38°41' W 009°13'4 7.4
2017-Oct-17 03:29N 38°41' W 009°17'4 8.7
2017-Oct-17 03:00N 38°38' W 009°21'4 9.0
2017-Oct-17 02:30N 38°34' W 009°23'611.6
2017-Oct-17 02:00N 38°28' W 009°21'611.8
2017-Oct-17 01:31N 38°22' W 009°21'611.4
2017-Oct-17 01:00N 38°16' W 009°23'611.0
2017-Oct-17 00:30N 38°11' W 009°22'611.7
2017-Oct-17 00:00N 38°05' W 009°22'612.7
2017-Oct-16 23:30N 37°59' W 009°22'613.0
2017-Oct-16 23:00N 37°52' W 009°22'713.4
2017-Oct-16 22:30N 37°46' W 009°22'58 8.6
2017-Oct-16 15:45N 36°57' W 008°42'414.5
2017-Oct-16 15:30N 36°60' W 008°39'714.1
2017-Oct-16 15:00N 37°05' W 008°33'3 5.5
2017-Oct-16 14:29N 37°08' W 008°32'0 0.0
2017-Oct-16 13:29N 37°08' W 008°32'0 0.0
2017-Oct-16 12:59N 37°08' W 008°32'0 0.0
2017-Oct-16 12:29N 37°08' W 008°32'0 0.0
2017-Oct-16 11:59N 37°08' W 008°32'0 0.0
2017-Oct-16 11:23N 37°08' W 008°32'0 0.0
2017-Oct-16 10:59N 37°08' W 008°32'0 0.0
2017-Oct-16 10:29N 37°08' W 008°32'0 0.0
2017-Oct-16 09:59N 37°08' W 008°32'0 0.0
2017-Oct-16 09:29N 37°08' W 008°32'0 0.0
2017-Oct-16 08:59N 37°08' W 008°32'0 0.0
2017-Oct-16 08:26N 37°08' W 008°32'0 0.0
2017-Oct-16 07:59N 37°08' W 008°32'0 0.0
2017-Oct-16 07:31N 37°08' W 008°32'1 2.4
2017-Oct-16 07:00N 37°06' W 008°32'2 3.2
2017-Oct-16 06:30N 37°05' W 008°33'3 5.4
2017-Oct-16 06:01N 37°02' W 008°33'510.0
2017-Oct-16 05:31N 37°01' W 008°27'611.4
2017-Oct-16 05:00N 36°60' W 008°20'611.2
2017-Oct-16 04:30N 36°58' W 008°13'611.4
2017-Oct-16 04:00N 36°57' W 008°06'134 3.7
2017-Oct-14 15:33N 35°58' W 005°37'013.8
2017-Oct-14 15:30N 35°58' W 005°36'613.0
2017-Oct-14 15:00N 35°60' W 005°28'611.9
2017-Oct-14 14:30N 36°04' W 005°24'2 0.2
2017-Oct-14 04:56N 36°06' W 005°22'3 7.8
2017-Oct-14 04:30N 36°06' W 005°18'5 8.9
2017-Oct-14 03:58N 36°08' W 005°12'224 7.4
2017-Oct-12 21:30N 37°24' W 000°49'914.9
2017-Oct-12 20:54N 37°30' W 000°40'614.7
2017-Oct-12 20:30N 37°34' W 000°35'715.0
2017-Oct-12 20:00N 37°39' W 000°29'1315.2
2017-Oct-12 19:08N 37°50' W 000°20'215.2
2017-Oct-12 18:59N 37°52' W 000°18'715.0
2017-Oct-12 18:30N 37°59' W 000°13'715.0
2017-Oct-12 18:00N 38°05' W 000°08'815.1
2017-Oct-12 17:30N 38°11' W 000°03'815.1
2017-Oct-12 17:00N 38°18' E 000°02'815.2
2017-Oct-12 16:30N 38°24' E 000°08'2214.6
2017-Oct-12 14:59N 38°43' E 000°23'105 4.9
2017-Oct-11 17:21N 39°25' E 002°27'511.9
2017-Oct-11 16:54N 39°26' E 002°34'243 5.0
2017-Oct-09 15:51N 43°24' E 003°45'2 2.1
2017-Oct-09 14:55N 43°24' E 003°42'0 0.0
2017-Oct-09 14:25N 43°24' E 003°42'0 0.0
2017-Oct-09 07:43N 43°24' E 003°42'4 1.1
2017-Oct-09 04:27N 43°23' E 003°47'3 3.3
2017-Oct-09 03:40N 43°22' E 003°50'1 3.4
2017-Oct-09 03:30N 43°21' E 003°51'10 5.5
2017-Oct-09 01:43N 43°21' E 004°04'3 8.0
2017-Oct-09 01:24N 43°20' E 004°07'3 7.9
2017-Oct-09 01:00N 43°19' E 004°11'4 7.8
2017-Oct-09 00:30N 43°18' E 004°16'4 7.7
2017-Oct-09 00:00N 43°17' E 004°21'4 8.1
2017-Oct-08 23:30N 43°17' E 004°27'5 7.8
2017-Oct-08 22:56N 43°16' E 004°33'3 7.8
2017-Oct-08 22:30N 43°16' E 004°38'6 7.7
2017-Oct-08 21:44N 43°16' E 004°46'3 8.0
2017-Oct-08 21:24N 43°16' E 004°50'911.1
2017-Oct-08 20:33N 43°11' E 005°00'111.2
2017-Oct-08 20:30N 43°11' E 005°01'5 9.2
2017-Oct-08 20:00N 43°11' E 005°07'4 8.3
2017-Oct-08 19:29N 43°14' E 005°12'7 8.2
2017-Oct-08 18:38N 43°18' E 005°19'  

Dump ship's entire track history